Time;durP1;ratioP1;P1;durP2;ratioP2;P2;SDS_P1;SDS_P2;PMS_P1;PMS_P2;Temp;Humidity;BMP_temperature;BMP_pressure;BME280_temperature;BME280_humidity;BME280_pressure;Samples;Min_cycle;Max_cycle;Signal;HPM_P1;HPM_P2
2023/09/12 00:00:44;;;;;;;15.43;9.53;;;;;;;18.80;100.00;99688.88;5042183;28;20610;-70
2023/09/12 00:03:09;;;;;;;14.30;9.00;;;;;;;18.75;100.00;99691.13;5042321;28;20596;-72
2023/09/12 00:05:34;;;;;;;18.23;9.23;;;;;;;18.61;100.00;99695.03;5069002;28;20238;-72
2023/09/12 00:08:00;;;;;;;14.77;8.83;;;;;;;18.58;100.00;99686.69;5048429;28;20197;-72
2023/09/12 00:10:25;;;;;;;11.90;8.60;;;;;;;18.57;100.00;99688.50;5043226;28;20389;-71
2023/09/12 00:12:50;;;;;;;14.70;9.07;;;;;;;18.55;100.00;99686.00;5063998;28;20177;-70
2023/09/12 00:15:16;;;;;;;16.40;8.87;;;;;;;18.60;100.00;99682.16;5064863;28;20185;-72
2023/09/12 00:17:41;;;;;;;16.30;9.17;;;;;;;18.61;100.00;99686.41;5051758;28;20197;-71
2023/09/12 00:20:08;;;;;;;12.20;8.60;;;;;;;18.64;100.00;99686.94;5045759;28;20670;-72
2023/09/12 00:22:33;;;;;;;11.13;8.90;;;;;;;18.70;100.00;99686.38;5059031;28;20182;-71
2023/09/12 00:24:58;;;;;;;15.27;8.53;;;;;;;18.72;100.00;99686.22;5051800;28;20181;-72
2023/09/12 00:27:24;;;;;;;15.97;9.23;;;;;;;18.69;100.00;99686.50;5051848;28;20238;-71
2023/09/12 00:29:49;;;;;;;14.67;9.33;;;;;;;18.59;100.00;99680.53;5068999;28;20701;-72
2023/09/12 00:32:14;;;;;;;16.43;9.07;;;;;;;18.51;100.00;99683.88;5059803;28;20217;-72
2023/09/12 00:34:39;;;;;;;14.83;8.93;;;;;;;18.41;100.00;99670.91;5069165;28;20180;-71
2023/09/12 00:37:05;;;;;;;14.30;9.57;;;;;;;18.31;100.00;99670.13;5071373;28;20216;-73
2023/09/12 00:39:30;;;;;;;17.63;9.33;;;;;;;18.25;100.00;99668.09;5068610;28;20180;-73
2023/09/12 00:41:55;;;;;;;14.90;9.33;;;;;;;18.21;100.00;99665.78;5059691;28;20220;-72
2023/09/12 00:44:21;;;;;;;14.90;9.60;;;;;;;18.17;100.00;99659.22;5070743;28;20315;-72
2023/09/12 00:46:49;;;;;;;18.77;9.17;;;;;;;18.17;100.00;99661.81;5051644;28;20193;-71
2023/09/12 00:49:16;;;;;;;12.83;9.10;;;;;;;18.25;100.00;99652.47;5066342;28;20247;-71
2023/09/12 00:51:43;;;;;;;16.37;10.77;;;;;;;18.37;100.00;99652.13;5060023;28;20570;-70
2023/09/12 00:54:08;;;;;;;15.93;9.27;;;;;;;18.38;100.00;99650.34;5071443;28;20180;-70
2023/09/12 00:56:34;;;;;;;13.97;9.20;;;;;;;18.39;100.00;99647.63;5064195;28;20196;-71
2023/09/12 00:59:00;;;;;;;14.00;10.20;;;;;;;18.44;100.00;99654.16;5059402;28;20289;-72
2023/09/12 01:01:25;;;;;;;15.60;9.10;;;;;;;18.45;100.00;99654.00;5053517;28;20313;-72
2023/09/12 01:03:51;;;;;;;10.60;9.07;;;;;;;18.41;100.00;99660.47;5067377;28;20272;-69
2023/09/12 01:06:21;;;;;;;19.77;9.73;;;;;;;18.35;100.00;99659.25;5043968;28;20186;-72
2023/09/12 01:08:47;;;;;;;19.47;9.87;;;;;;;18.33;100.00;99655.16;5062411;28;20194;-71
2023/09/12 01:11:13;;;;;;;17.37;9.87;;;;;;;18.35;100.00;99654.06;5034732;28;20233;-72
2023/09/12 01:13:39;;;;;;;15.00;9.73;;;;;;;18.33;100.00;99656.00;5059178;28;20177;-71
2023/09/12 01:16:04;;;;;;;17.97;9.40;;;;;;;18.17;100.00;99656.63;5050861;28;20252;-72
2023/09/12 01:18:31;;;;;;;16.90;10.23;;;;;;;18.19;100.00;99653.88;5040749;28;20205;-72
2023/09/12 01:21:38;;;;;;;18.00;9.57;;;;;;;18.08;100.00;99651.47;5040935;28;20746;-72
2023/09/12 01:24:23;;;;;;;16.40;9.17;;;;;;;18.00;100.00;99652.97;5049236;28;20205;-72
2023/09/12 01:27:07;;;;;;;17.37;10.30;;;;;;;18.04;100.00;99654.31;5055078;28;20663;-71
2023/09/12 01:29:34;;;;;;;15.53;9.77;;;;;;;18.01;100.00;99649.41;5054984;28;20173;-71
2023/09/12 01:32:01;;;;;;;16.93;9.90;;;;;;;17.92;100.00;99660.63;5042822;28;20355;-71
2023/09/12 01:34:26;;;;;;;16.57;10.13;;;;;;;17.94;100.00;99669.16;5051259;28;20196;-71
2023/09/12 01:36:51;;;;;;;16.67;10.53;;;;;;;17.88;100.00;99662.69;5054982;28;20259;-72
2023/09/12 01:39:17;;;;;;;21.13;10.10;;;;;;;17.82;100.00;99658.06;5054535;28;20567;-71
2023/09/12 01:41:46;;;;;;;16.57;9.90;;;;;;;17.81;100.00;99660.81;5046000;28;20248;-72
2023/09/12 01:44:11;;;;;;;16.27;11.23;;;;;;;17.72;100.00;99663.31;5045620;28;20638;-70
2023/09/12 01:46:37;;;;;;;15.50;10.87;;;;;;;17.72;100.00;99667.69;5045879;28;20182;-71
2023/09/12 01:49:05;;;;;;;19.73;11.20;;;;;;;17.56;100.00;99666.50;5047240;28;20185;-70
2023/09/12 01:51:30;;;;;;;19.13;10.70;;;;;;;17.38;100.00;99665.56;5035278;28;20243;-72
2023/09/12 01:53:57;;;;;;;18.10;10.97;;;;;;;17.25;100.00;99658.03;5038282;28;20637;-73
2023/09/12 01:56:23;;;;;;;17.37;11.33;;;;;;;17.34;100.00;99670.22;5033546;28;20190;-71
2023/09/12 01:58:49;;;;;;;17.73;10.93;;;;;;;17.45;100.00;99666.63;5034161;28;20194;-73
2023/09/12 02:01:14;;;;;;;20.70;11.57;;;;;;;17.49;100.00;99669.78;5043799;28;20229;-73
2023/09/12 02:03:39;;;;;;;17.00;10.67;;;;;;;17.48;100.00;99666.38;5054794;28;20251;-72
2023/09/12 02:06:05;;;;;;;18.30;10.93;;;;;;;17.41;100.00;99660.91;5055728;28;20213;-72
2023/09/12 02:08:30;;;;;;;14.47;10.67;;;;;;;17.38;100.00;99655.16;5062596;28;20188;-72
2023/09/12 02:10:55;;;;;;;18.63;11.20;;;;;;;17.31;100.00;99647.09;5052205;28;20228;-72
2023/09/12 02:13:20;;;;;;;17.70;10.10;;;;;;;17.32;100.00;99642.72;5051071;28;20700;-72
2023/09/12 02:15:46;;;;;;;17.93;10.43;;;;;;;17.41;100.00;99645.31;5073624;28;20226;-72
2023/09/12 02:18:11;;;;;;;17.23;9.73;;;;;;;17.38;100.00;99650.78;5045127;28;20285;-72
2023/09/12 02:20:39;;;;;;;14.87;10.00;;;;;;;17.45;100.00;99643.22;5036943;28;20241;-72
2023/09/12 02:23:04;;;;;;;18.87;9.97;;;;;;;17.37;100.00;99645.72;5059949;28;20190;-72
2023/09/12 02:25:29;;;;;;;12.30;9.77;;;;;;;17.23;100.00;99644.38;5045049;28;20182;-72
2023/09/12 02:27:55;;;;;;;19.43;11.43;;;;;;;17.30;100.00;99637.63;5032954;28;20262;-72
2023/09/12 02:30:20;;;;;;;16.77;10.37;;;;;;;17.36;100.00;99638.88;5030768;28;20495;-72
2023/09/12 02:32:45;;;;;;;17.70;10.10;;;;;;;17.36;100.00;99642.28;5049233;28;20190;-72
2023/09/12 02:35:10;;;;;;;13.73;9.90;;;;;;;17.45;100.00;99638.03;5044873;28;20244;-72
2023/09/12 02:37:36;;;;;;;18.63;10.17;;;;;;;17.54;100.00;99633.78;5051503;28;20216;-73
2023/09/12 02:40:03;;;;;;;19.03;11.03;;;;;;;17.56;100.00;99644.84;5063815;28;20648;-72
2023/09/12 02:42:29;;;;;;;16.77;10.67;;;;;;;17.57;100.00;99642.09;5040582;28;20255;-71
2023/09/12 02:44:54;;;;;;;16.20;10.80;;;;;;;17.61;100.00;99645.25;5065259;28;20591;-72
2023/09/12 02:47:19;;;;;;;17.10;10.93;;;;;;;17.58;100.00;99646.34;5044645;28;20193;-72
2023/09/12 02:49:44;;;;;;;18.43;10.57;;;;;;;17.63;100.00;99653.75;5059687;28;20250;-71
2023/09/12 02:52:10;;;;;;;14.00;10.57;;;;;;;17.69;100.00;99660.19;5046417;28;20292;-72
2023/09/12 02:54:35;;;;;;;17.73;10.80;;;;;;;17.68;100.00;99650.72;5061026;28;20255;-73
2023/09/12 02:57:00;;;;;;;21.53;10.57;;;;;;;17.65;100.00;99651.00;5070046;28;20192;-72
2023/09/12 02:59:25;;;;;;;16.77;9.87;;;;;;;17.55;100.00;99646.66;5060481;28;20636;-71
2023/09/12 03:01:51;;;;;;;14.60;10.60;;;;;;;17.50;100.00;99641.06;5045647;28;20247;-71
2023/09/12 03:04:16;;;;;;;19.53;10.53;;;;;;;17.51;100.00;99647.06;5052966;28;20194;-71
2023/09/12 03:06:41;;;;;;;15.97;10.57;;;;;;;17.58;100.00;99648.97;5039492;28;20235;-70
2023/09/12 03:09:07;;;;;;;15.17;9.93;;;;;;;17.64;100.00;99639.78;5033553;28;20248;-71
2023/09/12 03:11:32;;;;;;;17.47;10.77;;;;;;;17.65;100.00;99636.22;5033971;28;20233;-72
2023/09/12 03:13:57;;;;;;;18.47;10.63;;;;;;;17.58;100.00;99628.16;5024012;28;20235;-71
2023/09/12 03:16:24;;;;;;;20.57;10.67;;;;;;;17.58;100.00;99630.75;5028431;28;20185;-71
2023/09/12 03:18:49;;;;;;;21.73;10.10;;;;;;;17.59;100.00;99632.41;5032213;28;20256;-71
2023/09/12 03:21:14;;;;;;;17.07;10.40;;;;;;;17.57;100.00;99629.09;5042009;28;20651;-70
2023/09/12 03:23:40;;;;;;;14.60;10.33;;;;;;;17.63;100.00;99634.72;5058288;28;20256;-71
2023/09/12 03:26:05;;;;;;;14.23;9.50;;;;;;;17.64;100.00;99631.97;5052895;28;20200;-71
2023/09/12 03:28:31;;;;;;;19.33;10.27;;;;;;;17.66;100.00;99626.63;5033488;28;20641;-72
2023/09/12 03:31:13;;;;;;;19.43;9.63;;;;;;;17.67;100.00;99621.28;5002941;28;20731;-72
2023/09/12 03:33:40;;;;;;;21.90;10.10;;;;;;;17.79;100.00;99619.34;5021547;28;20704;-71
2023/09/12 03:36:06;;;;;;;16.10;10.17;;;;;;;17.82;100.00;99620.84;5034992;28;20169;-71
2023/09/12 03:38:33;;;;;;;15.07;9.53;;;;;;;17.86;100.00;99627.38;5032553;28;20194;-72
2023/09/12 03:40:58;;;;;;;15.83;9.97;;;;;;;17.88;100.00;99615.88;5027585;28;20229;-70
2023/09/12 03:43:23;;;;;;;15.80;10.03;;;;;;;17.85;100.00;99610.13;5020539;28;20177;-71
2023/09/12 03:45:49;;;;;;;15.60;10.27;;;;;;;17.79;100.00;99611.53;5045546;28;20306;-71
2023/09/12 03:48:14;;;;;;;13.97;9.37;;;;;;;17.78;100.00;99619.50;5032332;28;20189;-74
2023/09/12 03:50:39;;;;;;;14.40;9.97;;;;;;;17.81;100.00;99620.03;5024038;28;20238;-72
2023/09/12 03:53:05;;;;;;;14.73;9.17;;;;;;;17.87;100.00;99622.06;5042165;28;20261;-71
2023/09/12 03:55:30;;;;;;;15.40;10.10;;;;;;;17.94;100.00;99624.09;5032588;28;20174;-71
2023/09/12 03:57:55;;;;;;;19.43;9.93;;;;;;;18.01;100.00;99623.41;5050790;28;20198;-71
2023/09/12 04:00:21;;;;;;;18.43;10.37;;;;;;;18.08;100.00;99630.63;5044084;28;20220;-71
2023/09/12 04:02:46;;;;;;;18.93;10.33;;;;;;;18.15;100.00;99634.31;5064375;28;20582;-71
2023/09/12 04:05:12;;;;;;;15.87;9.87;;;;;;;18.13;100.00;99631.81;5051085;28;20205;-73
2023/09/12 04:07:37;;;;;;;17.30;10.63;;;;;;;18.13;100.00;99629.22;5051363;28;20192;-71
2023/09/12 04:10:03;;;;;;;18.13;10.50;;;;;;;18.12;100.00;99627.59;5029717;28;20541;-72
2023/09/12 04:12:28;;;;;;;15.57;9.77;;;;;;;18.23;100.00;99632.63;5048872;28;20600;-71
2023/09/12 04:14:54;;;;;;;19.43;10.20;;;;;;;18.19;100.00;99627.84;5036584;28;20585;-73
2023/09/12 04:17:20;;;;;;;22.50;9.97;;;;;;;18.28;100.00;99632.16;5030908;28;20255;-72
2023/09/12 04:19:45;;;;;;;26.10;10.67;;;;;;;18.31;100.00;99639.69;5031646;28;20190;-71
2023/09/12 04:22:10;;;;;;;20.13;10.87;;;;;;;18.33;100.00;99640.38;5031742;28;20235;-71
2023/09/12 04:24:36;;;;;;;14.30;9.73;;;;;;;18.27;100.00;99640.97;5027265;28;20703;-72
2023/09/12 04:27:01;;;;;;;22.80;10.70;;;;;;;18.31;100.00;99647.50;5027246;28;20190;-72
2023/09/12 04:29:27;;;;;;;21.30;10.27;;;;;;;18.35;100.00;99643.63;5026683;28;20174;-70
2023/09/12 04:31:58;;;;;;;17.50;11.27;;;;;;;18.36;100.00;99636.66;5049244;28;20227;-72
2023/09/12 04:34:24;;;;;;;18.63;10.43;;;;;;;18.29;100.00;99633.81;5045480;28;20197;-71
2023/09/12 04:36:49;;;;;;;15.60;9.10;;;;;;;18.29;100.00;99633.81;5050249;28;20644;-71
2023/09/12 04:39:14;;;;;;;18.43;9.73;;;;;;;18.34;100.00;99630.78;5034962;28;20210;-72
2023/09/12 04:41:40;;;;;;;14.57;9.80;;;;;;;18.38;100.00;99639.91;5039132;28;20229;-72
2023/09/12 04:44:05;;;;;;;20.83;9.87;;;;;;;18.44;100.00;99628.91;5036775;28;20285;-72
2023/09/12 04:46:30;;;;;;;16.93;10.07;;;;;;;18.49;100.00;99631.94;5031989;28;20185;-71
2023/09/12 04:48:55;;;;;;;19.87;11.40;;;;;;;18.44;100.00;99636.72;5032015;28;20186;-72
2023/09/12 04:51:21;;;;;;;18.53;9.70;;;;;;;18.48;100.00;99634.66;5031573;28;20235;-71
2023/09/12 04:53:51;;;;;;;17.73;10.10;;;;;;;18.51;100.00;99627.38;5035996;28;20265;-71
2023/09/12 04:56:17;;;;;;;14.27;9.40;;;;;;;18.52;100.00;99631.63;5031868;28;20177;-72
2023/09/12 04:58:42;;;;;;;19.80;9.63;;;;;;;18.58;100.00;99632.00;5031582;28;20227;-71
2023/09/12 05:01:07;;;;;;;17.57;9.60;;;;;;;18.59;100.00;99634.44;5039122;28;20221;-72
2023/09/12 05:03:33;;;;;;;21.50;10.60;;;;;;;18.62;100.00;99636.78;5058344;28;20209;-71
2023/09/12 05:05:58;;;;;;;19.73;11.77;;;;;;;18.64;100.00;99639.22;5043623;28;20178;-71
2023/09/12 05:08:24;;;;;;;20.33;11.03;;;;;;;18.67;100.00;99639.75;5045239;28;20174;-70
2023/09/12 05:10:49;;;;;;;16.80;10.00;;;;;;;18.72;100.00;99639.31;5035993;28;20255;-70
2023/09/12 05:13:15;;;;;;;19.43;10.73;;;;;;;18.62;100.00;99628.13;5060239;28;20223;-71
2023/09/12 05:15:41;;;;;;;14.63;10.10;;;;;;;18.65;100.00;99635.66;5060045;28;20235;-71
2023/09/12 05:18:07;;;;;;;20.63;10.60;;;;;;;18.71;100.00;99633.28;5041908;28;20201;-72
2023/09/12 05:20:33;;;;;;;14.40;9.57;;;;;;;18.76;100.00;99638.03;5036761;28;20284;-72
2023/09/12 05:22:58;;;;;;;18.60;10.43;;;;;;;18.79;100.00;99636.94;5042376;28;20178;-70
2023/09/12 05:25:23;;;;;;;18.00;9.80;;;;;;;18.71;100.00;99635.88;5039997;28;20193;-71
2023/09/12 05:27:49;;;;;;;22.63;11.20;;;;;;;18.70;100.00;99636.03;5049254;28;20185;-70
2023/09/12 05:30:14;;;;;;;17.70;9.80;;;;;;;18.79;100.00;99629.94;5024661;28;20186;-71
2023/09/12 05:32:41;;;;;;;16.93;10.30;;;;;;;18.79;100.00;99623.91;5062441;28;20199;-70
2023/09/12 05:35:07;;;;;;;18.37;10.80;;;;;;;18.86;100.00;99628.38;5038283;28;20688;-71
2023/09/12 05:37:32;;;;;;;21.37;10.67;;;;;;;18.91;100.00;99624.53;5036988;28;20297;-71
2023/09/12 05:39:57;;;;;;;20.37;11.37;;;;;;;18.95;100.00;99623.25;5050774;28;20217;-71
2023/09/12 05:42:22;;;;;;;23.57;11.70;;;;;;;18.99;100.00;99619.38;5025865;28;20706;-71
2023/09/12 05:44:49;;;;;;;15.13;10.77;;;;;;;18.97;100.00;99619.53;5034599;28;20186;-72
2023/09/12 05:47:15;;;;;;;19.67;10.80;;;;;;;18.99;100.00;99625.44;5034686;28;20181;-71
2023/09/12 05:49:40;;;;;;;25.80;11.70;;;;;;;19.10;100.00;99623.53;5047071;28;20212;-71
2023/09/12 05:52:05;;;;;;;20.23;10.43;;;;;;;19.27;100.00;99632.31;5055927;28;20619;-72
2023/09/12 05:54:31;;;;;;;23.37;11.70;;;;;;;19.40;100.00;99647.56;5054168;28;20641;-72
2023/09/12 05:56:56;;;;;;;22.63;11.30;;;;;;;19.46;100.00;99650.41;5054020;28;20181;-71
2023/09/12 05:59:21;;;;;;;27.13;11.90;;;;;;;19.33;100.00;99640.34;5054271;28;20209;-71
2023/09/12 06:01:48;;;;;;;22.43;10.93;;;;;;;19.21;100.00;99633.72;5056344;28;20227;-72
2023/09/12 06:04:13;;;;;;;20.23;10.67;;;;;;;19.31;100.00;99636.25;5055803;28;20197;-72
2023/09/12 06:06:39;;;;;;;24.97;11.17;;;;;;;19.38;100.00;99645.13;5053800;28;20539;-70
2023/09/12 06:09:05;;;;;;;20.70;10.73;;;;;;;19.43;100.00;99635.03;5054078;28;20177;-71
2023/09/12 06:11:31;;;;;;;21.63;11.53;;;;;;;19.50;100.00;99648.31;5054996;28;20333;-70
2023/09/12 06:13:56;;;;;;;21.30;10.70;;;;;;;19.39;100.00;99648.53;5057811;28;20174;-70
2023/09/12 06:16:22;;;;;;;26.53;10.97;;;;;;;19.40;100.00;99650.16;5053442;28;20188;-71
2023/09/12 06:18:48;;;;;;;21.73;11.77;;;;;;;19.54;100.00;99651.44;5053712;28;20204;-72
2023/09/12 06:21:14;;;;;;;22.07;10.20;;;;;;;19.56;100.00;99658.13;5052625;28;20232;-71
2023/09/12 06:23:39;;;;;;;20.97;10.67;;;;;;;19.63;100.00;99656.53;5059161;28;20532;-71
2023/09/12 06:26:04;;;;;;;20.67;10.67;;;;;;;19.81;100.00;99661.69;5053682;28;20653;-72
2023/09/12 06:28:30;;;;;;;20.27;10.10;;;;;;;20.06;100.00;99669.69;5053829;28;20209;-72
2023/09/12 06:30:59;;;;;;;23.47;11.13;;;;;;;20.35;100.00;99659.84;5049896;28;20224;-71
2023/09/12 06:33:25;;;;;;;25.07;10.80;;;;;;;20.25;100.00;99658.16;5061041;28;20631;-72
2023/09/12 06:35:52;;;;;;;22.23;9.90;;;;;;;20.47;100.00;99658.59;5052870;28;20613;-71
2023/09/12 06:38:18;;;;;;;20.13;9.90;;;;;;;20.88;100.00;99652.66;5053222;28;20213;-71
2023/09/12 06:40:44;;;;;;;15.50;9.60;;;;;;;21.43;100.00;99659.03;5047693;28;20236;-71
2023/09/12 06:43:09;;;;;;;21.87;10.03;;;;;;;21.91;100.00;99657.31;5050190;28;20177;-71
2023/09/12 06:45:37;;;;;;;14.70;9.63;;;;;;;22.17;100.00;99655.44;5052932;28;20190;-71
2023/09/12 06:48:03;;;;;;;23.43;8.97;;;;;;;23.24;100.00;99664.50;5053464;28;20162;-72
2023/09/12 06:50:28;;;;;;;20.80;8.90;;;;;;;25.06;100.00;99663.16;5045991;28;20268;-71
2023/09/12 06:52:54;;;;;;;21.60;8.77;;;;;;;25.30;100.00;99660.13;5064348;28;20599;-70
2023/09/12 06:55:19;;;;;;;16.05;9.02;;;;;;;25.63;100.00;99658.75;5053050;28;20276;-70
2023/09/12 06:57:45;;;;;;;16.65;8.48;;;;;;;26.62;99.97;99661.22;5052687;28;20194;-70
2023/09/12 07:00:11;;;;;;;23.13;8.35;;;;;;;26.92;97.60;99666.16;5042910;28;20186;-71
2023/09/12 07:02:37;;;;;;;20.15;8.00;;;;;;;27.49;93.37;99662.13;5066312;28;20178;-72
2023/09/12 07:05:03;;;;;;;16.50;7.90;;;;;;;27.69;90.96;99672.63;5052255;28;20205;-70
2023/09/12 07:07:29;;;;;;;17.27;7.50;;;;;;;27.98;88.97;99675.81;5051572;28;20193;-70
2023/09/12 07:09:54;;;;;;;13.90;6.75;;;;;;;28.06;87.79;99676.63;5051027;28;20191;-71
2023/09/12 07:12:19;;;;;;;16.95;7.55;;;;;;;28.02;89.89;99681.47;5057045;28;20315;-71
2023/09/12 07:14:44;;;;;;;18.55;6.90;;;;;;;29.79;74.66;99677.28;5052742;28;20175;-70
2023/09/12 07:17:10;;;;;;;11.38;7.28;;;;;;;28.18;82.72;99680.25;5052660;28;20251;-70
2023/09/12 07:19:35;;;;;;;17.85;7.57;;;;;;;27.94;86.57;99679.88;5052072;28;20178;-70
2023/09/12 07:22:01;;;;;;;23.10;7.75;;;;;;;26.62;94.97;99684.94;5056471;28;20262;-70
2023/09/12 07:24:27;;;;;;;21.65;7.95;;;;;;;27.38;90.88;99687.28;5052825;28;20184;-70
2023/09/12 07:26:53;;;;;;;15.10;7.15;;;;;;;27.81;86.41;99691.31;5051375;28;20236;-71
2023/09/12 07:29:18;;;;;;;14.35;6.93;;;;;;;27.77;87.28;99691.94;5050836;28;20185;-70
2023/09/12 07:31:43;;;;;;;16.08;6.97;;;;;;;28.36;83.92;99691.97;5046998;28;20395;-71
2023/09/12 07:34:09;;;;;;;16.58;7.03;;;;;;;27.40;90.03;99676.56;5061080;28;20556;-71
2023/09/12 07:36:35;;;;;;;17.85;7.22;;;;;;;27.30;90.41;99678.75;5071782;28;20185;-71
2023/09/12 07:39:00;;;;;;;20.85;7.85;;;;;;;28.00;85.00;99681.69;5070092;28;20205;-71
2023/09/12 07:41:25;;;;;;;20.40;6.88;;;;;;;28.44;83.95;99681.13;5052070;28;20228;-68
2023/09/12 07:43:51;;;;;;;22.70;7.90;;;;;;;27.36;88.61;99670.84;5069898;28;20185;-70
2023/09/12 07:46:16;;;;;;;16.73;7.05;;;;;;;27.70;88.99;99681.41;5071539;28;20627;-70
2023/09/12 07:48:41;;;;;;;20.13;7.13;;;;;;;28.18;85.14;99669.66;5059627;28;20556;-71
2023/09/12 07:51:14;;;;;;;21.38;7.22;;;;;;;28.56;83.36;99673.34;5045916;28;20262;-71
2023/09/12 07:53:40;;;;;;;18.23;6.90;;;;;;;29.89;70.39;99674.13;5031415;28;20185;-69
2023/09/12 07:56:06;;;;;;;19.00;6.28;;;;;;;29.33;71.73;99680.38;5032676;28;20182;-71
2023/09/12 07:58:31;;;;;;;17.63;7.35;;;;;;;29.20;73.08;99683.91;5032441;28;20206;-71
2023/09/12 08:00:56;;;;;;;26.85;7.32;;;;;;;29.42;71.54;99679.06;5029058;28;20320;-69
2023/09/12 08:03:21;;;;;;;17.17;6.53;;;;;;;28.70;80.11;99687.34;5039333;28;20664;-70
2023/09/12 08:05:57;;;;;;;21.50;7.60;;;;;;;27.39;88.90;99678.34;5031612;28;20243;-71
2023/09/12 08:08:23;;;;;;;14.60;7.32;;;;;;;28.02;85.42;99679.66;5032234;28;20188;-71
2023/09/12 08:10:49;;;;;;;19.35;6.97;;;;;;;28.17;83.04;99684.72;5034462;28;20224;-69
2023/09/12 08:13:14;;;;;;;20.92;6.75;;;;;;;28.84;75.65;99680.94;5051923;28;20189;-70
2023/09/12 08:15:39;;;;;;;13.65;6.07;;;;;;;29.15;69.72;99688.03;5055464;28;20240;-69
2023/09/12 08:18:05;;;;;;;16.35;6.35;;;;;;;29.99;66.12;99681.56;5046690;28;20292;-71
2023/09/12 08:20:30;;;;;;;19.58;6.68;;;;;;;31.05;58.55;99685.66;5036965;28;20233;-69
2023/09/12 08:22:55;;;;;;;14.70;7.18;;;;;;;29.77;65.89;99694.41;5057901;28;20434;-70
2023/09/12 08:25:20;;;;;;;19.33;8.05;;;;;;;29.78;70.13;99696.88;5043908;28;20185;-70
2023/09/12 08:27:46;;;;;;;16.27;6.78;;;;;;;30.40;64.59;99690.66;5058264;28;20242;-70
2023/09/12 08:30:12;;;;;;;20.08;8.25;;;;;;;32.38;52.51;99686.91;5030924;28;20185;-70
2023/09/12 08:32:43;;;;;;;14.13;6.30;;;;;;;33.14;47.25;99702.63;5065089;28;20597;-71
2023/09/12 08:35:15;;;;;;;16.27;6.68;;;;;;;33.76;45.07;99695.47;5043488;28;20324;-70
2023/09/12 08:37:41;;;;;;;22.00;6.97;;;;;;;32.51;49.72;99696.44;5036309;28;20201;-71
2023/09/12 08:40:08;;;;;;;19.73;7.55;;;;;;;32.76;49.38;99692.66;5033008;28;20190;-70
2023/09/12 08:42:40;;;;;;;22.52;7.63;;;;;;;33.67;45.36;99690.84;5032236;28;20265;-71
2023/09/12 08:45:11;;;;;;;16.17;7.53;;;;;;;32.91;47.57;99690.25;5031825;28;20264;-70
2023/09/12 08:47:40;;;;;;;19.67;7.10;;;;;;;33.64;45.42;99697.47;5060206;28;20182;-67
2023/09/12 08:50:06;;;;;;;22.48;8.02;;;;;;;34.23;42.22;99694.19;5033001;28;20208;-71
2023/09/12 08:52:32;;;;;;;17.95;7.07;;;;;;;34.91;40.78;99693.78;5065083;28;20176;-70
2023/09/12 08:54:57;;;;;;;19.73;6.82;;;;;;;35.44;39.31;99703.00;5051092;28;20196;-70
2023/09/12 08:57:24;;;;;;;15.10;6.63;;;;;;;34.46;40.69;99708.34;5050448;28;20737;-70
2023/09/12 08:59:50;;;;;;;18.65;7.53;;;;;;;34.50;41.61;99705.97;5050285;28;20243;-70
2023/09/12 09:02:16;;;;;;;18.58;7.43;;;;;;;33.84;42.08;99718.28;5047973;28;20645;-69
2023/09/12 09:04:42;;;;;;;15.23;7.10;;;;;;;35.21;39.18;99729.81;5031590;28;20225;-71
2023/09/12 09:07:10;;;;;;;24.30;7.63;;;;;;;33.69;43.43;99716.22;5031754;28;20190;-70
2023/09/12 09:09:35;;;;;;;15.77;6.47;;;;;;;34.83;40.66;99714.78;5031306;28;20645;-69
2023/09/12 09:12:01;;;;;;;15.18;6.57;;;;;;;35.62;38.79;99718.59;5038941;28;20221;-71
2023/09/12 09:14:26;;;;;;;17.65;6.40;;;;;;;37.25;35.80;99722.97;5018256;28;20528;-71
2023/09/12 09:16:51;;;;;;;20.63;6.57;;;;;;;38.54;33.21;99719.81;5032330;28;20182;-70
2023/09/12 09:19:18;;;;;;;18.42;6.55;;;;;;;37.99;32.44;99723.31;5035086;28;20209;-70
2023/09/12 09:21:43;;;;;;;25.30;6.35;;;;;;;38.00;33.50;99726.84;5039927;28;20239;-71
2023/09/12 09:24:12;;;;;;;18.92;6.65;;;;;;;37.43;34.09;99721.63;5056770;28;20260;-70
2023/09/12 09:26:48;;;;;;;26.08;7.70;;;;;;;38.09;33.58;99719.78;5055023;28;20181;-70
2023/09/12 09:29:20;;;;;;;19.27;6.50;;;;;;;38.35;32.04;99706.25;5041150;28;20961;-71
2023/09/12 09:31:48;;;;;;;16.75;6.63;;;;;;;37.02;34.07;99705.59;5057318;28;20278;-70
2023/09/12 09:34:15;;;;;;;16.90;6.30;;;;;;;38.11;31.85;99701.53;5055253;28;20239;-70
2023/09/12 09:36:57;;;;;;;18.08;6.68;;;;;;;37.84;32.60;99704.63;5043471;28;20182;-70
2023/09/12 09:39:27;;;;;;;21.25;6.72;;;;;;;37.25;33.22;99702.34;5042767;28;20204;-70
2023/09/12 09:41:56;;;;;;;19.88;6.45;;;;;;;35.79;35.64;99688.19;5058984;28;20297;-70
2023/09/12 09:44:25;;;;;;;15.82;6.40;;;;;;;35.83;35.98;99681.25;5039960;28;20189;-70
2023/09/12 09:46:54;;;;;;;13.65;6.28;;;;;;;36.55;35.09;99686.81;5043947;28;20186;-70
2023/09/12 09:49:20;;;;;;;17.73;6.55;;;;;;;36.50;35.45;99684.13;5051821;28;20184;-71
2023/09/12 09:51:46;;;;;;;14.50;7.00;;;;;;;36.65;34.13;99686.81;5042746;28;20312;-70
2023/09/12 09:54:12;;;;;;;15.88;6.45;;;;;;;38.04;31.95;99696.44;5050030;28;20268;-70
2023/09/12 09:56:48;;;;;;;12.48;6.15;;;;;;;37.26;33.32;99681.69;5054626;28;20692;-71
2023/09/12 09:59:19;;;;;;;16.55;6.57;;;;;;;36.78;34.44;99680.13;5034886;28;20209;-70
2023/09/12 10:01:45;;;;;;;19.45;6.90;;;;;;;37.01;34.52;99682.53;5036008;28;20759;-71
2023/09/12 10:04:10;;;;;;;16.52;7.03;;;;;;;38.14;32.73;99674.13;5043351;28;20684;-70
2023/09/12 10:06:37;;;;;;;16.40;6.97;;;;;;;39.62;30.63;99683.06;5053431;28;20189;-71
2023/09/12 10:09:07;;;;;;;13.90;6.30;;;;;;;37.50;32.83;99681.09;5041247;28;20208;-71
2023/09/12 10:11:33;;;;;;;16.60;6.20;;;;;;;38.68;30.82;99679.69;5042912;28;20297;-70
2023/09/12 10:14:03;;;;;;;21.85;8.13;;;;;;;36.00;34.80;99667.69;5045116;28;20260;-70
2023/09/12 10:16:47;;;;;;;14.77;6.78;;;;;;;36.22;34.78;99664.81;5054064;28;20533;-70
2023/09/12 10:19:17;;;;;;;18.55;6.68;;;;;;;36.06;34.57;99663.97;5053947;28;20243;-71
2023/09/12 10:22:07;;;;;;;20.05;6.85;;;;;;;35.59;36.96;99662.97;5054777;28;20632;-69
2023/09/12 10:24:34;;;;;;;17.30;6.95;;;;;;;34.52;37.07;99655.78;5053289;28;20559;-71
2023/09/12 10:27:01;;;;;;;12.38;6.20;;;;;;;34.91;37.36;99660.94;5053348;28;20660;-70
2023/09/12 10:29:27;;;;;;;15.95;7.00;;;;;;;34.69;39.45;99659.13;5053256;28;20628;-70
2023/09/12 10:31:52;;;;;;;19.73;6.68;;;;;;;33.58;41.94;99650.47;5056918;28;20228;-72
2023/09/12 10:34:18;;;;;;;13.35;6.53;;;;;;;32.58;45.55;99643.88;5054831;28;20606;-70
2023/09/12 10:36:45;;;;;;;11.32;6.25;;;;;;;30.49;57.49;99643.41;5053374;28;20238;-70
2023/09/12 10:39:12;;;;;;;14.73;7.40;;;;;;;30.13;62.59;99639.78;5052660;28;20213;-69
2023/09/12 10:41:38;;;;;;;15.98;7.10;;;;;;;30.10;65.97;99633.09;5046856;28;20232;-68
2023/09/12 10:44:11;;;;;;;13.02;7.65;;;;;;;29.28;70.62;99642.06;5046159;28;20254;-70
2023/09/12 10:46:38;;;;;;;16.42;7.07;;;;;;;29.57;68.10;99633.69;5053546;28;20185;-70
2023/09/12 10:49:08;;;;;;;16.20;8.25;;;;;;;29.51;66.58;99642.50;5053363;28;20189;-70
2023/09/12 10:51:37;;;;;;;16.63;7.57;;;;;;;29.28;74.43;99651.88;5054253;28;20255;-70
2023/09/12 10:54:03;;;;;;;15.50;7.18;;;;;;;29.42;81.49;99655.22;5055745;28;20264;-71
2023/09/12 10:56:32;;;;;;;18.45;8.43;;;;;;;28.52;79.29;99646.50;5052557;28;20261;-70
2023/09/12 10:59:06;;;;;;;19.42;7.65;;;;;;;28.93;79.15;99647.09;5051627;28;20690;-70
2023/09/12 11:01:52;;;;;;;18.08;7.70;;;;;;;29.54;72.58;99639.44;5054290;28;20251;-70
2023/09/12 11:04:27;;;;;;;13.65;7.57;;;;;;;29.74;65.33;99629.41;5043107;28;20291;-70
2023/09/12 11:06:52;;;;;;;18.38;8.18;;;;;;;29.51;67.35;99634.56;5039072;28;20228;-70
2023/09/12 11:09:22;;;;;;;11.48;6.65;;;;;;;29.72;67.55;99633.31;5044154;28;20190;-71
2023/09/12 11:11:49;;;;;;;12.20;6.93;;;;;;;29.83;72.03;99629.91;5037279;28;20692;-69
2023/09/12 11:14:18;;;;;;;18.52;7.63;;;;;;;30.25;66.12;99626.56;5052540;28;20272;-70